Terminal Aerodrome Forecast
Issued by NWS

Home | Current Version | Previous Version | Text Only | Print | Product List | Glossary On
Versions: 1 2 3 4 5 6 7 8 9 10 11 12 13 14 15 16 17 18 19 20 21 22 23 24 25 26 27 28 29 30
000
FTUS45 KSLC 190636 AAA
TAFLGU
TAF AMD
KLGU 190636Z 1907/2006 22007KT P6SM VCTS SCT060CB BKN080
      TEMPO 1907/1908 VRB15G25KT 3SM TSRA SCT040CB BKN100
     FM190800 22007KT P6SM VCSH SCT060 BKN080
     FM191000 36005KT P6SM SCT060 BKN100
     FM191400 35004KT P6SM SCT100=

USA.gov is the U.S. government's official web portal to all federal, state and local government web resources and services.